createdAt,value
2019-03-01T00:01:02.559Z,21.80
2019-03-01T00:03:31.306Z,21.70
2019-03-01T00:06:20.267Z,21.07
2019-03-01T00:08:54.547Z,21.73
2019-03-01T00:11:32.006Z,23.10
2019-03-01T00:14:09.111Z,22.40
2019-03-01T00:17:02.894Z,22.67
2019-03-01T00:19:40.160Z,20.87
2019-03-01T00:22:27.964Z,20.20
2019-03-01T00:25:14.482Z,21.53
2019-03-01T00:28:18.923Z,20.80
2019-03-01T00:31:01.568Z,20.10
2019-03-01T00:33:41.954Z,20.40
2019-03-01T00:36:43.295Z,20.33
2019-03-01T00:39:32.602Z,20.10
2019-03-01T00:42:32.273Z,20.17
2019-03-01T00:45:00.747Z,19.70
2019-03-01T00:47:29.185Z,18.57
2019-03-01T00:49:57.677Z,19.63
2019-03-01T00:52:26.178Z,18.90
2019-03-01T00:54:54.713Z,17.50
2019-03-01T00:57:23.155Z,17.67
2019-03-01T00:59:51.616Z,18.17
2019-03-01T01:02:20.069Z,18.00
2019-03-01T01:04:48.522Z,17.57
2019-03-01T01:07:16.970Z,17.17
2019-03-01T01:09:45.421Z,17.97
2019-03-01T01:12:13.863Z,16.57
2019-03-01T01:14:42.321Z,18.37
2019-03-01T01:17:10.776Z,18.27
2019-03-01T01:19:39.242Z,16.93
2019-03-01T01:22:07.689Z,18.13
2019-03-01T01:24:36.142Z,17.47
2019-03-01T01:27:04.585Z,17.07
2019-03-01T01:29:33.041Z,18.70
2019-03-01T01:32:01.474Z,18.30
2019-03-01T01:34:29.923Z,18.40
2019-03-01T01:36:58.358Z,18.33
2019-03-01T01:39:26.814Z,19.77
2019-03-01T01:41:55.266Z,20.37
2019-03-01T01:44:23.722Z,23.00
2019-03-01T01:46:52.168Z,24.17
2019-03-01T01:49:20.623Z,24.70
2019-03-01T01:51:49.054Z,25.93
2019-03-01T01:54:17.502Z,26.13
2019-03-01T01:56:45.948Z,27.27
2019-03-01T01:59:14.389Z,27.13
2019-03-01T02:01:42.918Z,28.20
2019-03-01T02:04:11.409Z,26.47
2019-03-01T02:06:39.873Z,27.40
2019-03-01T02:09:17.572Z,27.97
2019-03-01T02:11:46.041Z,26.63
2019-03-01T02:14:14.480Z,27.00
2019-03-01T02:16:42.938Z,27.13
2019-03-01T02:19:11.381Z,27.30
2019-03-01T02:21:39.836Z,27.10
2019-03-01T02:24:08.276Z,25.87
2019-03-01T02:26:36.739Z,25.90
2019-03-01T02:29:05.182Z,26.07
2019-03-01T02:31:33.648Z,25.23
2019-03-01T02:34:02.162Z,25.67
2019-03-01T02:36:30.628Z,24.90
2019-03-01T02:38:59.082Z,24.33
2019-03-01T02:41:27.542Z,25.20
2019-03-01T02:43:55.992Z,25.73
2019-03-01T02:46:24.442Z,26.13
2019-03-01T02:48:52.886Z,26.07
2019-03-01T02:51:21.361Z,24.60
2019-03-01T02:53:49.795Z,24.47
2019-03-01T02:56:18.250Z,24.63
2019-03-01T02:58:46.684Z,26.53
2019-03-01T03:01:15.171Z,24.50
2019-03-01T03:03:43.606Z,24.20
2019-03-01T03:06:13.770Z,25.13
2019-03-01T03:08:42.224Z,25.00
2019-03-01T03:11:10.671Z,25.23
2019-03-01T03:13:39.141Z,24.30
2019-03-01T03:16:07.663Z,24.87
2019-03-01T03:18:36.193Z,23.73
2019-03-01T03:21:04.647Z,26.03
2019-03-01T03:23:33.093Z,23.27
2019-03-01T03:26:01.546Z,24.73
2019-03-01T03:28:29.992Z,24.33
2019-03-01T03:30:58.444Z,23.17
2019-03-01T03:33:26.907Z,24.87
2019-03-01T03:35:55.347Z,24.97
2019-03-01T03:38:23.815Z,24.37
2019-03-01T03:40:52.246Z,23.27
2019-03-01T03:43:22.657Z,24.57
2019-03-01T03:45:50.872Z,23.47
2019-03-01T03:48:19.410Z,23.70
2019-03-01T03:50:47.849Z,23.47
2019-03-01T03:53:16.314Z,25.10
2019-03-01T03:55:44.769Z,23.10
2019-03-01T03:58:13.324Z,25.00
2019-03-01T04:00:41.766Z,25.07
2019-03-01T04:03:10.220Z,24.20
2019-03-01T04:05:38.668Z,23.60
2019-03-01T04:08:07.112Z,23.37
2019-03-01T04:10:35.539Z,24.67
2019-03-01T04:13:04.004Z,24.40
2019-03-01T04:15:32.436Z,24.23
2019-03-01T04:18:00.900Z,24.13
2019-03-01T04:20:29.410Z,23.63
2019-03-01T04:22:57.875Z,25.20
2019-03-01T04:25:26.330Z,22.93
2019-03-01T04:27:54.787Z,25.07
2019-03-01T04:30:23.210Z,25.43
2019-03-01T04:32:51.678Z,24.83
2019-03-01T04:35:20.399Z,26.17
2019-03-01T04:37:48.838Z,26.27
2019-03-01T04:40:17.364Z,26.27
2019-03-01T04:42:45.807Z,25.07
2019-03-01T04:45:17.999Z,25.20
2019-03-01T04:47:46.430Z,27.07
2019-03-01T04:50:14.964Z,25.27
2019-03-01T04:52:43.420Z,26.37
2019-03-01T04:55:22.832Z,26.87
2019-03-01T04:57:51.266Z,26.97
2019-03-01T05:00:24.024Z,27.00
2019-03-01T05:02:52.483Z,27.87
2019-03-01T05:05:20.943Z,27.10
2019-03-01T05:07:49.389Z,27.77
2019-03-01T05:10:17.849Z,26.63
2019-03-01T05:12:46.303Z,27.57
2019-03-01T05:15:20.185Z,27.13
2019-03-01T05:17:48.646Z,26.27
2019-03-01T05:20:17.187Z,28.63
2019-03-01T05:22:45.617Z,25.80
2019-03-01T05:25:14.216Z,25.70
2019-03-01T05:27:42.648Z,25.80
2019-03-01T05:30:13.656Z,25.67
2019-03-01T05:32:42.083Z,26.67
2019-03-01T05:35:10.606Z,26.23
2019-03-01T05:37:39.045Z,26.07
2019-03-01T05:40:10.553Z,26.77
2019-03-01T05:42:39.006Z,28.70
2019-03-01T05:45:13.434Z,26.37
2019-03-01T05:47:41.880Z,26.97
2019-03-01T05:50:12.974Z,27.50
2019-03-01T05:52:41.450Z,28.43
2019-03-01T05:55:11.545Z,29.23
2019-03-01T05:58:16.773Z,28.13
2019-03-01T06:00:45.873Z,27.40
2019-03-01T06:03:40.991Z,27.50
2019-03-01T06:06:12.503Z,28.13
2019-03-01T06:08:58.715Z,27.63
2019-03-01T06:11:32.978Z,28.87
2019-03-01T06:14:04.495Z,28.73
2019-03-01T06:16:44.814Z,27.43
2019-03-01T06:19:28.026Z,28.03
2019-03-01T06:22:14.157Z,29.63
2019-03-01T06:25:00.457Z,29.13
2019-03-01T06:28:04.698Z,31.30
2019-03-01T06:30:51.642Z,31.83
2019-03-01T06:33:49.555Z,30.97
2019-03-01T06:36:32.617Z,33.43
2019-03-01T06:39:17.108Z,31.80
2019-03-01T06:42:01.109Z,29.30
2019-03-01T06:44:52.068Z,28.43
2019-03-01T06:47:41.714Z,28.63
2019-03-01T06:50:17.430Z,27.00
2019-03-01T06:52:45.897Z,28.87
2019-03-01T06:55:17.438Z,28.93
2019-03-01T06:57:45.876Z,30.43
2019-03-01T07:00:14.322Z,31.67
2019-03-01T07:02:47.083Z,32.03
2019-03-01T07:05:15.529Z,30.10
2019-03-01T07:07:43.978Z,30.70
2019-03-01T07:10:12.484Z,28.40
2019-03-01T07:12:40.958Z,27.67
2019-03-01T07:15:09.402Z,27.20
2019-03-01T07:17:37.856Z,27.27
2019-03-01T07:20:08.708Z,26.80
2019-03-01T07:22:37.251Z,27.13
2019-03-01T07:25:06.834Z,28.43
2019-03-01T07:27:35.346Z,26.47
2019-03-01T07:30:10.902Z,27.50
2019-03-01T07:32:39.384Z,27.10
2019-03-01T07:35:09.173Z,26.13
2019-03-01T07:37:37.715Z,27.13
2019-03-01T07:40:08.621Z,27.00
2019-03-01T07:42:37.079Z,27.23
2019-03-01T07:45:07.664Z,26.47
2019-03-01T07:47:36.180Z,26.50
2019-03-01T07:50:07.698Z,27.90
2019-03-01T07:52:36.157Z,25.67
2019-03-01T07:55:09.182Z,27.43
2019-03-01T07:57:37.458Z,28.30
2019-03-01T08:00:14.802Z,27.73
2019-03-01T08:02:45.449Z,26.90
2019-03-01T08:05:16.215Z,28.87
2019-03-01T08:07:44.491Z,29.07
2019-03-01T08:10:20.914Z,26.57
2019-03-01T08:12:47.531Z,26.53
2019-03-01T08:15:17.863Z,28.70
2019-03-01T08:17:46.415Z,27.07
2019-03-01T08:20:16.147Z,27.40
2019-03-01T08:22:48.526Z,28.37
2019-03-01T08:25:14.778Z,29.20
2019-03-01T08:27:46.429Z,29.07
2019-03-01T08:30:17.058Z,29.37
2019-03-01T08:32:45.523Z,28.23
2019-03-01T08:35:14.893Z,29.07
2019-03-01T08:37:43.344Z,28.63
2019-03-01T08:40:17.368Z,29.53
2019-03-01T08:42:46.002Z,28.60
2019-03-01T08:45:16.732Z,31.20
2019-03-01T08:47:45.207Z,29.80
2019-03-01T08:50:17.552Z,31.20
2019-03-01T08:52:46.557Z,32.27
2019-03-01T08:55:25.839Z,32.67
2019-03-01T08:57:54.373Z,30.83
2019-03-01T09:00:28.257Z,30.87
2019-03-01T09:02:59.599Z,33.27
2019-03-01T09:05:28.037Z,30.87
2019-03-01T09:07:56.502Z,31.83
2019-03-01T09:10:24.972Z,32.07
2019-03-01T09:12:53.438Z,32.00
2019-03-01T09:15:21.879Z,31.33
2019-03-01T09:17:50.336Z,32.63
2019-03-01T09:20:19.114Z,31.87
2019-03-01T09:22:47.718Z,33.10
2019-03-01T09:25:16.713Z,32.17
2019-03-01T09:27:45.151Z,30.90
2019-03-01T09:30:18.615Z,32.77
2019-03-01T09:32:47.136Z,31.80
2019-03-01T09:35:34.081Z,32.87
2019-03-01T09:38:04.556Z,32.77
2019-03-01T09:40:32.784Z,32.30
2019-03-01T09:43:01.281Z,34.77
2019-03-01T09:45:36.299Z,32.37
2019-03-01T09:48:00.030Z,33.63
2019-03-01T09:50:31.525Z,33.10
2019-03-01T09:52:59.191Z,32.53
2019-03-01T09:55:28.339Z,32.47
2019-03-01T09:57:56.808Z,33.27
2019-03-01T10:00:31.485Z,33.77
2019-03-01T10:02:59.952Z,34.50
2019-03-01T10:05:28.458Z,33.80
2019-03-01T10:07:56.935Z,34.80
2019-03-01T10:10:27.729Z,34.57
2019-03-01T10:12:56.254Z,33.63
2019-03-01T10:15:24.681Z,35.67
2019-03-01T10:17:53.233Z,35.07
2019-03-01T10:20:21.766Z,37.47
2019-03-01T10:22:50.287Z,35.70
2019-03-01T10:25:19.767Z,36.03
2019-03-01T10:27:48.247Z,36.93
2019-03-01T10:30:18.331Z,37.17
2019-03-01T10:32:46.882Z,36.37
2019-03-01T10:35:15.953Z,38.23
2019-03-01T10:37:44.663Z,37.90
2019-03-01T10:40:15.040Z,39.37
2019-03-01T10:42:43.534Z,38.07
2019-03-01T10:45:14.919Z,39.27
2019-03-01T10:47:43.372Z,37.23
2019-03-01T10:50:12.352Z,40.50
2019-03-01T10:52:40.884Z,38.10
2019-03-01T10:55:17.234Z,37.63
2019-03-01T10:57:45.702Z,37.30
2019-03-01T11:00:27.090Z,37.10
2019-03-01T11:02:56.503Z,36.13
2019-03-01T11:05:25.674Z,35.73
2019-03-01T11:07:54.873Z,36.20
2019-03-01T11:10:37.808Z,37.93
2019-03-01T11:13:08.788Z,36.90
2019-03-01T11:15:37.235Z,38.37
2019-03-01T11:18:05.870Z,38.47
2019-03-01T11:20:34.383Z,36.93
2019-03-01T11:23:02.910Z,38.13
2019-03-01T11:25:31.349Z,38.17
2019-03-01T11:27:59.819Z,36.57
2019-03-01T11:30:35.419Z,34.80
2019-03-01T11:33:03.942Z,36.93
2019-03-01T11:35:32.393Z,34.20
2019-03-01T11:38:00.861Z,33.63
2019-03-01T11:40:36.838Z,33.47
2019-03-01T11:43:05.860Z,33.00
2019-03-01T11:45:34.370Z,33.30
2019-03-01T11:48:03.488Z,30.90
2019-03-01T11:50:31.957Z,31.20
2019-03-01T11:53:00.411Z,32.17
2019-03-01T11:55:28.879Z,30.97
2019-03-01T11:57:57.330Z,30.97
2019-03-01T12:00:26.923Z,30.70
2019-03-01T12:02:55.445Z,31.57
2019-03-01T12:05:23.940Z,30.37
2019-03-01T12:07:52.388Z,29.30
2019-03-01T12:10:22.376Z,30.07
2019-03-01T12:12:50.828Z,28.67
2019-03-01T12:15:19.276Z,26.43
2019-03-01T12:17:47.708Z,28.73
2019-03-01T12:20:18.409Z,26.73
2019-03-01T12:22:46.853Z,27.63
2019-03-01T12:25:15.454Z,27.77
2019-03-01T12:27:43.886Z,26.87
2019-03-01T12:30:15.254Z,25.33
2019-03-01T12:32:43.685Z,25.73
2019-03-01T12:35:12.237Z,24.30
2019-03-01T12:37:40.681Z,24.70
2019-03-01T12:40:18.032Z,25.63
2019-03-01T12:42:46.476Z,24.40
2019-03-01T12:45:15.788Z,22.77
2019-03-01T12:47:44.530Z,22.73
2019-03-01T12:50:14.046Z,20.13
2019-03-01T12:52:42.788Z,20.17
2019-03-01T12:55:24.239Z,19.57
2019-03-01T12:57:52.749Z,20.30
2019-03-01T13:00:27.311Z,20.33
2019-03-01T13:02:55.751Z,18.97
2019-03-01T13:05:25.694Z,15.80
2019-03-01T13:07:54.591Z,15.27
2019-03-01T13:10:25.162Z,15.77
2019-03-01T13:12:54.656Z,16.63
2019-03-01T13:15:23.224Z,16.67
2019-03-01T13:17:51.659Z,15.20
2019-03-01T13:20:20.347Z,14.47
2019-03-01T13:22:48.862Z,14.00
2019-03-01T13:25:17.334Z,13.63
2019-03-01T13:27:48.756Z,13.67
2019-03-01T13:30:18.634Z,11.33
2019-03-01T13:32:47.070Z,12.83
2019-03-01T13:35:17.382Z,11.70
2019-03-01T13:37:45.823Z,11.00
2019-03-01T13:40:16.238Z,10.57
2019-03-01T13:42:47.157Z,11.07
2019-03-01T13:45:17.358Z,10.33
2019-03-01T13:47:45.855Z,10.93
2019-03-01T13:50:21.231Z,10.37
2019-03-01T13:52:50.251Z,10.43
2019-03-01T13:55:22.275Z,10.30
2019-03-01T13:57:50.165Z,10.23
2019-03-01T14:00:20.271Z,9.90
2019-03-01T14:02:48.711Z,10.07
2019-03-01T14:05:17.653Z,10.40
2019-03-01T14:07:46.532Z,10.63
2019-03-01T14:10:28.255Z,10.47
2019-03-01T14:12:57.598Z,9.50
2019-03-01T14:15:26.086Z,9.83
2019-03-01T14:18:00.704Z,9.30
2019-03-01T14:20:24.777Z,11.57
2019-03-01T14:22:53.233Z,8.77
2019-03-01T14:25:21.756Z,9.23
2019-03-01T14:27:50.180Z,9.03
2019-03-01T14:30:25.197Z,8.67
2019-03-01T14:32:56.964Z,8.80
2019-03-01T14:35:25.784Z,7.90
2019-03-01T14:37:55.336Z,8.17
2019-03-01T14:40:24.114Z,8.90
2019-03-01T14:42:52.649Z,9.03
2019-03-01T14:45:25.669Z,7.47
2019-03-01T14:47:54.450Z,7.27
2019-03-01T14:50:24.432Z,6.87
2019-03-01T14:52:56.930Z,7.07
2019-03-01T14:55:34.928Z,7.63
2019-03-01T14:58:12.144Z,6.80
2019-03-01T15:00:50.877Z,6.97
2019-03-01T15:03:30.770Z,6.80
2019-03-01T15:05:59.391Z,6.20
2019-03-01T15:08:27.929Z,6.60
2019-03-01T15:10:57.326Z,7.70
2019-03-01T15:13:27.801Z,5.63
2019-03-01T15:15:56.392Z,5.73
2019-03-01T15:18:25.124Z,6.23
2019-03-01T15:20:56.348Z,6.70
2019-03-01T15:23:24.779Z,6.03
2019-03-01T15:25:53.335Z,6.10
2019-03-01T15:28:22.366Z,5.40
2019-03-01T15:30:50.794Z,5.30
2019-03-01T15:33:19.354Z,5.80
2019-03-01T15:35:47.792Z,5.50
2019-03-01T15:38:16.318Z,5.60
2019-03-01T15:40:44.769Z,5.63
2019-03-01T15:43:13.229Z,4.90
2019-03-01T15:45:41.665Z,5.60
2019-03-01T15:48:10.139Z,5.47
2019-03-01T15:50:38.751Z,5.10
2019-03-01T15:53:07.206Z,5.50
2019-03-01T15:55:35.677Z,5.57
2019-03-01T15:58:04.193Z,5.70
2019-03-01T16:00:32.671Z,5.60
2019-03-01T16:03:01.158Z,5.93
2019-03-01T16:05:29.650Z,5.23
2019-03-01T16:07:58.101Z,5.67
2019-03-01T16:10:26.552Z,5.67
2019-03-01T16:12:55.015Z,5.20
2019-03-01T16:15:23.448Z,5.23
2019-03-01T16:17:51.929Z,5.77
2019-03-01T16:20:21.007Z,5.13
2019-03-01T16:22:51.150Z,5.40
2019-03-01T16:25:20.574Z,5.50
2019-03-01T16:27:50.623Z,5.57
2019-03-01T16:30:21.333Z,5.33
2019-03-01T16:32:50.704Z,6.03
2019-03-01T16:35:22.006Z,5.40
2019-03-01T16:37:57.874Z,5.10
2019-03-01T16:40:24.684Z,5.23
2019-03-01T16:42:54.578Z,6.97
2019-03-01T16:45:23.162Z,4.83
2019-03-01T16:47:51.624Z,5.40
2019-03-01T16:50:20.705Z,5.43
2019-03-01T16:52:49.221Z,6.50
2019-03-01T16:55:27.742Z,5.53
2019-03-01T16:58:06.286Z,6.50
2019-03-01T17:00:26.428Z,4.53
2019-03-01T17:03:06.398Z,4.67
2019-03-01T17:05:35.820Z,5.07
2019-03-01T17:08:06.046Z,4.90
2019-03-01T17:10:34.759Z,5.00
2019-03-01T17:13:03.262Z,5.37
2019-03-01T17:15:31.796Z,5.73
2019-03-01T17:18:00.246Z,6.47
2019-03-01T17:20:29.073Z,5.53
2019-03-01T17:22:59.654Z,6.17
2019-03-01T17:25:27.846Z,5.80
2019-03-01T17:27:56.420Z,6.13
2019-03-01T17:30:25.784Z,5.97
2019-03-01T17:32:54.271Z,6.33
2019-03-01T17:35:22.803Z,6.17
2019-03-01T17:37:51.311Z,5.93
2019-03-01T17:40:20.013Z,6.00
2019-03-01T17:42:48.602Z,6.10
2019-03-01T17:45:24.683Z,5.90
2019-03-01T17:47:55.316Z,6.20
2019-03-01T17:50:23.477Z,6.57
2019-03-01T17:52:51.943Z,5.83
2019-03-01T17:55:24.390Z,6.40
2019-03-01T17:57:53.156Z,6.50
2019-03-01T18:00:40.343Z,6.30
2019-03-01T18:03:09.342Z,7.07
2019-03-01T18:05:40.716Z,6.70
2019-03-01T18:08:08.033Z,7.70
2019-03-01T18:10:36.493Z,6.57
2019-03-01T18:13:04.980Z,6.50
2019-03-01T18:15:33.489Z,6.60
2019-03-01T18:18:01.922Z,7.10
2019-03-01T18:20:30.369Z,6.27
2019-03-01T18:22:59.423Z,6.20
2019-03-01T18:25:29.137Z,5.87
2019-03-01T18:27:57.626Z,6.10
2019-03-01T18:30:36.307Z,4.70
2019-03-01T18:33:04.752Z,4.70
2019-03-01T18:35:33.248Z,5.07
2019-03-01T18:38:01.689Z,4.90
2019-03-01T18:40:30.994Z,4.30
2019-03-01T18:42:59.445Z,5.30
2019-03-01T18:45:28.064Z,5.50
2019-03-01T18:47:56.502Z,5.53
2019-03-01T18:50:31.161Z,5.93
2019-03-01T18:52:58.949Z,5.63
2019-03-01T18:55:27.506Z,5.57
2019-03-01T18:57:56.014Z,5.37
2019-03-01T19:00:35.646Z,5.63
2019-03-01T19:03:04.465Z,5.23
2019-03-01T19:05:36.645Z,5.07
2019-03-01T19:08:04.657Z,5.07
2019-03-01T19:10:33.735Z,5.57
2019-03-01T19:13:02.211Z,5.23
2019-03-01T19:15:30.733Z,4.93
2019-03-01T19:17:59.160Z,5.23
2019-03-01T19:20:33.266Z,4.87
2019-03-01T19:23:01.758Z,4.60
2019-03-01T19:25:30.214Z,4.97
2019-03-01T19:27:58.641Z,4.20
2019-03-01T19:30:27.105Z,4.40
2019-03-01T19:32:58.784Z,5.00
2019-03-01T19:35:29.712Z,4.60
2019-03-01T19:37:55.937Z,4.90
2019-03-01T19:40:24.680Z,4.53
2019-03-01T19:42:53.209Z,5.30
2019-03-01T19:45:21.645Z,4.83
2019-03-01T19:47:50.093Z,4.60
2019-03-01T19:50:24.982Z,4.50
2019-03-01T19:52:53.178Z,4.50
2019-03-01T19:55:21.614Z,4.40
2019-03-01T19:57:50.057Z,5.10
2019-03-01T20:00:29.343Z,5.20
2019-03-01T20:02:57.924Z,4.17
2019-03-01T20:05:36.684Z,3.80
2019-03-01T20:08:05.203Z,4.20
2019-03-01T20:10:33.638Z,4.60
2019-03-01T20:13:02.119Z,3.70
2019-03-01T20:15:31.442Z,4.07
2019-03-01T20:17:59.989Z,3.97
2019-03-01T20:20:30.006Z,4.37
2019-03-01T20:22:59.526Z,4.07
2019-03-01T20:25:28.039Z,3.87
2019-03-01T20:27:56.583Z,4.10
2019-03-01T20:30:31.695Z,4.30
2019-03-01T20:33:00.281Z,4.17
2019-03-01T20:35:28.853Z,4.63
2019-03-01T20:38:00.266Z,4.90
2019-03-01T20:40:28.490Z,5.17
2019-03-01T20:43:00.497Z,4.43
2019-03-01T20:45:29.797Z,4.50
2019-03-01T20:47:59.242Z,3.47
2019-03-01T20:50:27.776Z,4.80
2019-03-01T20:52:56.339Z,4.10
2019-03-01T20:55:24.809Z,4.20
2019-03-01T20:57:53.297Z,4.60
2019-03-01T21:00:26.216Z,4.43
2019-03-01T21:02:54.335Z,4.87
2019-03-01T21:05:24.895Z,4.83
2019-03-01T21:07:53.763Z,4.67
2019-03-01T21:10:32.385Z,5.33
2019-03-01T21:13:00.874Z,4.67
2019-03-01T21:15:29.383Z,4.57
2019-03-01T21:17:58.658Z,4.43
2019-03-01T21:20:27.316Z,4.87
2019-03-01T21:22:55.827Z,4.83
2019-03-01T21:25:25.039Z,4.80
2019-03-01T21:27:53.518Z,5.37
2019-03-01T21:30:29.705Z,5.20
2019-03-01T21:32:58.156Z,5.10
2019-03-01T21:35:26.610Z,5.20
2019-03-01T21:37:55.097Z,4.83
2019-03-01T21:40:23.597Z,4.57
2019-03-01T21:42:52.671Z,4.63
2019-03-01T21:45:24.451Z,4.33
2019-03-01T21:47:53.048Z,4.20
2019-03-01T21:50:21.684Z,4.70
2019-03-01T21:52:50.138Z,4.30
2019-03-01T21:55:29.579Z,5.10
2019-03-01T21:57:58.291Z,4.67
2019-03-01T22:00:29.723Z,4.90
2019-03-01T22:02:58.153Z,5.03
2019-03-01T22:05:26.634Z,5.00
2019-03-01T22:07:55.087Z,4.47
2019-03-01T22:10:23.592Z,4.40
2019-03-01T22:12:52.161Z,4.60
2019-03-01T22:15:25.429Z,5.00
2019-03-01T22:17:52.632Z,4.87
2019-03-01T22:20:21.948Z,5.07
2019-03-01T22:22:50.445Z,4.23
2019-03-01T22:25:18.895Z,4.53
2019-03-01T22:27:47.331Z,4.50
2019-03-01T22:30:27.575Z,4.17
2019-03-01T22:32:56.006Z,5.07
2019-03-01T22:35:24.465Z,4.70
2019-03-01T22:37:52.917Z,4.40
2019-03-01T22:40:23.871Z,4.90
2019-03-01T22:42:51.604Z,4.47
2019-03-01T22:45:20.063Z,4.70
2019-03-01T22:47:48.528Z,4.70
2019-03-01T22:50:18.144Z,5.30
2019-03-01T22:52:46.735Z,4.57
2019-03-01T22:55:17.207Z,4.83
2019-03-01T22:57:45.658Z,4.57
2019-03-01T23:00:49.626Z,4.20
2019-03-01T23:03:20.012Z,4.77
2019-03-01T23:05:48.729Z,4.50
2019-03-01T23:08:17.156Z,4.00
2019-03-01T23:10:45.634Z,4.57
2019-03-01T23:13:16.884Z,4.97
2019-03-01T23:15:44.601Z,4.77
2019-03-01T23:18:13.161Z,4.20
2019-03-01T23:20:41.779Z,4.77
2019-03-01T23:23:10.231Z,4.57
2019-03-01T23:25:38.716Z,4.70
2019-03-01T23:28:08.039Z,4.70
2019-03-01T23:30:37.344Z,4.93
2019-03-01T23:33:05.859Z,3.93
2019-03-01T23:35:34.671Z,4.30
2019-03-01T23:38:03.128Z,4.57
2019-03-01T23:40:32.809Z,4.33
2019-03-01T23:43:01.837Z,4.60
2019-03-01T23:45:30.294Z,4.77
2019-03-01T23:47:58.716Z,4.50
2019-03-01T23:50:27.169Z,4.73
2019-03-01T23:52:58.824Z,5.20
2019-03-01T23:55:25.779Z,4.50
2019-03-01T23:57:54.233Z,4.73
